createdAt,value
2023-04-02T00:00:10.014Z,94128.00
2023-04-02T00:01:10.058Z,94124.00
2023-04-02T00:02:10.122Z,94126.00
2023-04-02T00:03:10.299Z,94122.00
2023-04-02T00:04:10.209Z,94128.00
2023-04-02T00:05:10.244Z,94126.00
2023-04-02T00:06:10.302Z,94126.00
2023-04-02T00:07:10.329Z,94126.00
2023-04-02T00:08:10.430Z,94130.00
2023-04-02T00:09:10.420Z,94130.00
2023-04-02T00:10:10.482Z,94130.00
2023-04-02T00:11:10.546Z,94134.00
2023-04-02T00:12:10.539Z,94132.00
2023-04-02T00:13:10.603Z,94132.00
2023-04-02T00:14:10.612Z,94134.00
2023-04-02T00:15:10.722Z,94134.00
2023-04-02T00:16:10.751Z,94134.00
2023-04-02T00:17:10.782Z,94142.00
2023-04-02T00:18:10.842Z,94134.00
2023-04-02T00:19:10.842Z,94142.00
2023-04-02T00:20:10.915Z,94134.00
2023-04-02T00:21:10.975Z,94134.00
2023-04-02T00:22:11.012Z,94134.00
2023-04-02T00:23:11.081Z,94134.00
2023-04-02T00:24:11.102Z,94134.00
2023-04-02T00:25:11.139Z,94142.00
2023-04-02T00:26:11.227Z,94142.00
2023-04-02T00:27:11.257Z,94144.00
2023-04-02T00:28:11.368Z,94144.00
2023-04-02T00:29:11.366Z,94142.00
2023-04-02T00:30:11.455Z,94146.00
2023-04-02T00:31:11.526Z,94146.00
2023-04-02T00:32:11.565Z,94144.00
2023-04-02T00:33:11.643Z,94144.00
2023-04-02T00:34:11.650Z,94144.00
2023-04-02T00:35:11.733Z,94144.00
2023-04-02T00:36:11.784Z,94144.00
2023-04-02T00:37:11.791Z,94144.00
2023-04-02T00:38:11.875Z,94144.00
2023-04-02T00:39:11.863Z,94144.00
2023-04-02T00:40:11.933Z,94146.00
2023-04-02T00:41:11.971Z,94148.00
2023-04-02T00:42:12.017Z,94149.00
2023-04-02T00:43:12.095Z,94149.00
2023-04-02T00:44:12.093Z,94148.00
2023-04-02T00:45:12.154Z,94146.00
2023-04-02T00:46:12.187Z,94142.00
2023-04-02T00:47:12.254Z,94144.00
2023-04-02T00:48:12.307Z,94146.00
2023-04-02T00:49:12.335Z,94134.00
2023-04-02T00:50:12.400Z,94146.00
2023-04-02T00:51:12.407Z,94144.00
2023-04-02T00:52:12.511Z,94132.00
2023-04-02T00:53:12.516Z,94132.00
2023-04-02T00:54:12.568Z,94132.00
2023-04-02T00:55:12.606Z,94132.00
2023-04-02T00:56:12.703Z,94134.00
2023-04-02T00:57:12.734Z,94134.00
2023-04-02T00:58:12.773Z,94142.00
2023-04-02T00:59:12.800Z,94134.00
2023-04-02T01:00:12.912Z,94134.00
2023-04-02T01:01:12.956Z,94142.00
2023-04-02T01:02:12.999Z,94134.00
2023-04-02T01:03:13.141Z,94134.00
2023-04-02T01:04:13.075Z,94142.00
2023-04-02T01:05:13.156Z,94134.00
2023-04-02T01:06:13.214Z,94132.00
2023-04-02T01:07:13.241Z,94144.00
2023-04-02T01:08:13.290Z,94142.00
2023-04-02T01:09:13.342Z,94142.00
2023-04-02T01:10:13.422Z,94144.00
2023-04-02T01:11:13.462Z,94144.00
2023-04-02T01:12:13.512Z,94146.00
2023-04-02T01:13:13.639Z,94146.00
2023-04-02T01:14:13.576Z,94148.00
2023-04-02T01:15:13.698Z,94148.00
2023-04-02T01:16:13.689Z,94149.00
2023-04-02T01:17:13.752Z,94149.00
2023-04-02T01:18:13.798Z,94151.00
2023-04-02T01:19:13.842Z,94151.00
2023-04-02T01:20:13.866Z,94153.00
2023-04-02T01:21:13.935Z,94153.00
2023-04-02T01:22:13.988Z,94148.00
2023-04-02T01:23:14.017Z,94153.00
2023-04-02T01:24:14.156Z,94155.00
2023-04-02T01:25:14.161Z,94151.00
2023-04-02T01:26:14.212Z,94151.00
2023-04-02T01:27:14.231Z,94149.00
2023-04-02T01:28:14.283Z,94151.00
2023-04-02T01:29:14.317Z,94153.00
2023-04-02T01:30:14.386Z,94155.00
2023-04-02T01:31:14.486Z,94151.00
2023-04-02T01:32:14.462Z,94149.00
2023-04-02T01:33:14.634Z,94149.00
2023-04-02T01:34:14.543Z,94149.00
2023-04-02T01:35:14.647Z,94151.00
2023-04-02T01:36:14.724Z,94151.00
2023-04-02T01:37:14.736Z,94151.00
2023-04-02T01:38:14.767Z,94151.00
2023-04-02T01:39:14.836Z,94151.00
2023-04-02T01:40:14.831Z,94153.00
2023-04-02T01:41:14.893Z,94157.00
2023-04-02T01:42:14.924Z,94155.00
2023-04-02T01:43:14.980Z,94157.00
2023-04-02T01:44:15.063Z,94159.00
2023-04-02T01:45:15.099Z,94163.00
2023-04-02T01:46:15.144Z,94163.00
2023-04-02T01:47:15.195Z,94161.00
2023-04-02T01:48:15.217Z,94161.00
2023-04-02T01:49:15.266Z,94159.00
2023-04-02T01:50:15.371Z,94161.00
2023-04-02T01:51:15.379Z,94163.00
2023-04-02T01:52:15.385Z,94163.00
2023-04-02T01:53:15.480Z,94163.00
2023-04-02T01:54:15.528Z,94165.00
2023-04-02T01:55:15.548Z,94167.00
2023-04-02T01:56:15.600Z,94167.00
2023-04-02T01:57:15.659Z,94167.00
2023-04-02T01:58:15.720Z,94167.00
2023-04-02T01:59:15.770Z,94169.00
2023-04-02T02:00:15.812Z,94167.00
2023-04-02T02:01:15.878Z,94165.00
2023-04-02T02:02:15.937Z,94167.00
2023-04-02T02:03:16.011Z,94167.00
2023-04-02T02:04:15.966Z,94167.00
2023-04-02T02:05:16.050Z,94171.00
2023-04-02T02:06:16.126Z,94173.00
2023-04-02T02:07:16.165Z,94173.00
2023-04-02T02:08:16.230Z,94175.00
2023-04-02T02:09:16.302Z,94175.00
2023-04-02T02:10:16.387Z,94179.00
2023-04-02T02:11:16.437Z,94181.00
2023-04-02T02:12:16.515Z,94179.00
2023-04-02T02:13:16.531Z,94183.00
2023-04-02T02:14:16.622Z,94183.00
2023-04-02T02:15:16.672Z,94185.00
2023-04-02T02:16:16.699Z,94185.00
2023-04-02T02:17:16.776Z,94185.00
2023-04-02T02:18:16.792Z,94187.00
2023-04-02T02:19:16.864Z,94185.00
2023-04-02T02:20:16.872Z,94187.00
2023-04-02T02:21:16.909Z,94187.00
2023-04-02T02:22:16.976Z,94185.00
2023-04-02T02:23:17.015Z,94187.00
2023-04-02T02:24:17.119Z,94185.00
2023-04-02T02:25:17.153Z,94187.00
2023-04-02T02:26:17.160Z,94185.00
2023-04-02T02:27:17.196Z,94189.00
2023-04-02T02:28:17.228Z,94189.00
2023-04-02T02:29:17.301Z,94193.00
2023-04-02T02:30:17.299Z,94195.00
2023-04-02T02:31:17.357Z,94195.00
2023-04-02T02:32:17.406Z,94195.00
2023-04-02T02:33:17.426Z,94195.00
2023-04-02T02:34:17.503Z,94196.00
2023-04-02T02:35:17.544Z,94196.00
2023-04-02T02:36:17.615Z,94198.00
2023-04-02T02:37:17.621Z,94200.00
2023-04-02T02:38:17.670Z,94202.00
2023-04-02T02:39:17.770Z,94204.00
2023-04-02T02:40:17.789Z,94206.00
2023-04-02T02:41:17.876Z,94206.00
2023-04-02T02:42:17.880Z,94208.00
2023-04-02T02:43:17.922Z,94206.00
2023-04-02T02:44:17.978Z,94206.00
2023-04-02T02:45:18.039Z,94210.00
2023-04-02T02:46:18.168Z,94210.00
2023-04-02T02:47:18.108Z,94210.00
2023-04-02T02:48:18.183Z,94214.00
2023-04-02T02:49:18.252Z,94212.00
2023-04-02T02:50:18.299Z,94214.00
2023-04-02T02:51:18.341Z,94216.00
2023-04-02T02:52:18.314Z,94216.00
2023-04-02T02:53:18.404Z,94218.00
2023-04-02T02:54:18.432Z,94218.00
2023-04-02T02:55:18.497Z,94222.00
2023-04-02T02:56:18.534Z,94222.00
2023-04-02T02:57:18.660Z,94222.00
2023-04-02T02:58:18.584Z,94228.00
2023-04-02T02:59:18.695Z,94226.00
2023-04-02T03:00:18.740Z,94228.00
2023-04-02T03:01:18.839Z,94228.00
2023-04-02T03:02:18.885Z,94228.00
2023-04-02T03:03:18.951Z,94228.00
2023-04-02T03:04:18.943Z,94232.00
2023-04-02T03:05:18.916Z,94232.00
2023-04-02T03:06:18.974Z,94234.00
2023-04-02T03:07:18.994Z,94234.00
2023-04-02T03:08:19.054Z,94236.00
2023-04-02T03:09:19.171Z,94234.00
2023-04-02T03:10:19.159Z,94234.00
2023-04-02T03:11:19.200Z,94232.00
2023-04-02T03:12:19.241Z,94236.00
2023-04-02T03:13:19.305Z,94238.00
2023-04-02T03:14:19.347Z,94238.00
2023-04-02T03:15:19.390Z,94238.00
2023-04-02T03:16:19.495Z,94242.00
2023-04-02T03:17:19.512Z,94242.00
2023-04-02T03:18:19.647Z,94242.00
2023-04-02T03:19:19.633Z,94242.00
2023-04-02T03:20:19.674Z,94243.00
2023-04-02T03:21:19.711Z,94242.00
2023-04-02T03:22:19.788Z,94242.00
2023-04-02T03:23:20.575Z,94243.00
2023-04-02T03:24:19.901Z,94245.00
2023-04-02T03:25:19.938Z,94247.00
2023-04-02T03:26:19.944Z,94247.00
2023-04-02T03:27:19.997Z,94249.00
2023-04-02T03:28:20.053Z,94251.00
2023-04-02T03:29:20.128Z,94251.00
2023-04-02T03:30:20.145Z,94255.00
2023-04-02T03:31:20.232Z,94257.00
2023-04-02T03:32:20.232Z,94253.00
2023-04-02T03:33:20.273Z,94257.00
2023-04-02T03:34:20.373Z,94259.00
2023-04-02T03:35:20.414Z,94257.00
2023-04-02T03:36:20.511Z,94257.00
2023-04-02T03:37:20.539Z,94255.00
2023-04-02T03:38:20.608Z,94259.00
2023-04-02T03:39:20.663Z,94257.00
2023-04-02T03:40:20.714Z,94257.00
2023-04-02T03:41:20.721Z,94259.00
2023-04-02T03:42:20.749Z,94261.00
2023-04-02T03:43:20.769Z,94263.00
2023-04-02T03:44:20.877Z,94261.00
2023-04-02T03:45:20.934Z,94261.00
2023-04-02T03:46:20.989Z,94261.00
2023-04-02T03:47:21.066Z,94263.00
2023-04-02T03:48:21.052Z,94263.00
2023-04-02T03:49:21.129Z,94265.00
2023-04-02T03:50:21.153Z,94267.00
2023-04-02T03:51:21.209Z,94267.00
2023-04-02T03:52:21.257Z,94263.00
2023-04-02T03:53:21.323Z,94269.00
2023-04-02T03:54:21.362Z,94269.00
2023-04-02T03:55:21.383Z,94269.00
2023-04-02T03:56:21.415Z,94267.00
2023-04-02T03:57:21.526Z,94267.00
2023-04-02T03:58:21.528Z,94265.00
2023-04-02T03:59:21.641Z,94267.00
2023-04-02T04:00:21.673Z,94267.00
2023-04-02T04:01:21.717Z,94265.00
2023-04-02T04:02:21.874Z,94269.00
2023-04-02T04:03:21.796Z,94269.00
2023-04-02T04:04:21.889Z,94271.00
2023-04-02T04:05:21.851Z,94271.00
2023-04-02T04:06:21.898Z,94273.00
2023-04-02T04:07:21.962Z,94273.00
2023-04-02T04:08:22.033Z,94275.00
2023-04-02T04:09:22.119Z,94273.00
2023-04-02T04:10:22.099Z,94275.00
2023-04-02T04:11:22.237Z,94279.00
2023-04-02T04:12:22.213Z,94279.00
2023-04-02T04:13:22.278Z,94283.00
2023-04-02T04:14:22.472Z,94283.00
2023-04-02T04:15:22.337Z,94285.00
2023-04-02T04:16:22.451Z,94285.00
2023-04-02T04:17:22.437Z,94283.00
2023-04-02T04:18:22.486Z,94285.00
2023-04-02T04:19:22.558Z,94287.00
2023-04-02T04:20:22.636Z,94287.00
2023-04-02T04:21:22.638Z,94289.00
2023-04-02T04:22:22.706Z,94292.00
2023-04-02T04:23:22.742Z,94294.00
2023-04-02T04:24:22.768Z,94294.00
2023-04-02T04:25:22.869Z,94300.00
2023-04-02T04:26:22.932Z,94304.00
2023-04-02T04:27:22.913Z,94306.00
2023-04-02T04:28:22.990Z,94308.00
2023-04-02T04:29:23.005Z,94308.00
2023-04-02T04:30:23.072Z,94308.00
2023-04-02T04:31:25.757Z,94312.00
2023-04-02T04:32:23.076Z,94312.00
2023-04-02T04:33:23.149Z,94314.00
2023-04-02T04:34:23.066Z,94314.00
2023-04-02T04:35:23.046Z,94314.00
2023-04-02T04:36:23.078Z,94318.00
2023-04-02T04:37:23.050Z,94320.00
2023-04-02T04:38:23.061Z,94320.00
2023-04-02T04:39:23.064Z,94322.00
2023-04-02T04:40:23.035Z,94324.00
2023-04-02T04:41:23.011Z,94324.00
2023-04-02T04:42:23.023Z,94324.00
2023-04-02T04:43:23.025Z,94326.00
2023-04-02T04:44:23.009Z,94326.00
2023-04-02T04:45:23.003Z,94328.00
2023-04-02T04:46:23.068Z,94330.00
2023-04-02T04:47:23.030Z,94332.00
2023-04-02T04:48:22.961Z,94330.00
2023-04-02T04:49:22.963Z,94330.00
2023-04-02T04:50:22.956Z,94332.00
2023-04-02T04:51:22.972Z,94334.00
2023-04-02T04:52:22.957Z,94334.00
2023-04-02T04:53:22.966Z,94334.00
2023-04-02T04:54:22.958Z,94334.00
2023-04-02T04:55:22.984Z,94336.00
2023-04-02T04:56:22.920Z,94337.00
2023-04-02T04:57:23.019Z,94337.00
2023-04-02T04:58:22.881Z,94336.00
2023-04-02T04:59:22.896Z,94339.00
2023-04-02T05:00:22.907Z,94341.00
2023-04-02T05:01:22.992Z,94341.00
2023-04-02T05:02:22.990Z,94345.00
2023-04-02T05:03:22.882Z,94349.00
2023-04-02T05:04:22.942Z,94347.00
2023-04-02T05:05:22.876Z,94347.00
2023-04-02T05:06:22.872Z,94349.00
2023-04-02T05:07:22.854Z,94349.00
2023-04-02T05:08:22.863Z,94349.00
2023-04-02T05:09:22.863Z,94349.00
2023-04-02T05:10:22.876Z,94349.00
2023-04-02T05:11:22.818Z,94349.00
2023-04-02T05:12:22.810Z,94347.00
2023-04-02T05:13:22.830Z,94347.00
2023-04-02T05:14:22.829Z,94345.00
2023-04-02T05:15:22.800Z,94347.00
2023-04-02T05:16:22.858Z,94345.00
2023-04-02T05:17:22.813Z,94347.00
2023-04-02T05:18:22.764Z,94347.00
2023-04-02T05:19:22.751Z,94347.00
2023-04-02T05:20:22.761Z,94347.00
2023-04-02T05:21:22.842Z,94351.00
2023-04-02T05:22:22.856Z,94351.00
2023-04-02T05:23:22.896Z,94353.00
2023-04-02T05:24:22.915Z,94351.00
2023-04-02T05:25:23.002Z,94353.00
2023-04-02T05:26:23.071Z,94353.00
2023-04-02T05:27:23.122Z,94355.00
2023-04-02T05:28:23.131Z,94353.00
2023-04-02T05:29:23.202Z,94353.00
2023-04-02T05:30:23.281Z,94355.00
2023-04-02T05:31:23.290Z,94361.00
2023-04-02T05:32:23.322Z,94359.00
2023-04-02T05:33:23.486Z,94361.00
2023-04-02T05:34:23.452Z,94363.00
2023-04-02T05:35:23.496Z,94361.00
2023-04-02T05:36:23.645Z,94363.00
2023-04-02T05:37:23.570Z,94365.00
2023-04-02T05:38:23.612Z,94369.00
2023-04-02T05:39:23.700Z,94371.00
2023-04-02T05:40:23.727Z,94373.00
2023-04-02T05:41:23.804Z,94373.00
2023-04-02T05:42:23.846Z,94375.00
2023-04-02T05:43:23.852Z,94377.00
2023-04-02T05:44:23.933Z,94381.00
2023-04-02T05:45:23.987Z,94383.00
2023-04-02T05:46:24.074Z,94383.00
2023-04-02T05:47:24.097Z,94381.00
2023-04-02T05:48:24.161Z,94381.00
2023-04-02T05:49:24.154Z,94383.00
2023-04-02T05:50:24.227Z,94384.00
2023-04-02T05:51:24.281Z,94386.00
2023-04-02T05:52:24.324Z,94386.00
2023-04-02T05:53:24.363Z,94388.00
2023-04-02T05:54:24.451Z,94388.00
2023-04-02T05:55:24.451Z,94390.00
2023-04-02T05:56:24.556Z,94398.00
2023-04-02T05:57:39.498Z,94400.00
2023-04-02T05:59:24.565Z,94400.00
2023-04-02T06:00:24.579Z,94400.00
2023-04-02T06:01:24.600Z,94402.00
2023-04-02T06:02:24.756Z,94402.00
2023-04-02T06:03:24.774Z,94402.00
2023-04-02T06:04:24.776Z,94404.00
2023-04-02T06:05:24.821Z,94406.00
2023-04-02T06:06:24.936Z,94406.00
2023-04-02T06:07:24.942Z,94404.00
2023-04-02T06:08:25.001Z,94404.00
2023-04-02T06:09:25.105Z,94402.00
2023-04-02T06:10:25.147Z,94406.00
2023-04-02T06:11:25.244Z,94404.00
2023-04-02T06:12:25.298Z,94402.00
2023-04-02T06:13:25.345Z,94402.00
2023-04-02T06:14:25.362Z,94402.00
2023-04-02T06:15:25.467Z,94404.00
2023-04-02T06:16:25.526Z,94404.00
2023-04-02T06:17:25.658Z,94402.00
2023-04-02T06:18:25.588Z,94402.00
2023-04-02T06:19:25.698Z,94404.00
2023-04-02T06:20:25.668Z,94404.00
2023-04-02T06:21:25.763Z,94412.00
2023-04-02T06:22:25.824Z,94410.00
2023-04-02T06:23:25.875Z,94414.00
2023-04-02T06:24:25.944Z,94410.00
2023-04-02T06:25:25.955Z,94412.00
2023-04-02T06:26:26.048Z,94412.00
2023-04-02T06:27:26.127Z,94410.00
2023-04-02T06:28:26.173Z,94412.00
2023-04-02T06:29:26.213Z,94414.00
2023-04-02T06:30:26.299Z,94414.00
2023-04-02T06:31:26.354Z,94414.00
2023-04-02T06:32:26.354Z,94414.00
2023-04-02T06:33:26.407Z,94416.00
2023-04-02T06:34:26.460Z,94418.00
2023-04-02T06:35:26.531Z,94422.00
2023-04-02T06:36:26.536Z,94420.00
2023-04-02T06:37:26.584Z,94424.00
2023-04-02T06:38:26.612Z,94422.00
2023-04-02T06:39:26.691Z,94422.00
2023-04-02T06:40:26.713Z,94420.00
2023-04-02T06:41:26.778Z,94422.00
2023-04-02T06:42:26.811Z,94424.00
2023-04-02T06:43:26.814Z,94424.00
2023-04-02T06:44:26.824Z,94426.00
2023-04-02T06:45:26.910Z,94426.00
2023-04-02T06:46:27.001Z,94431.00
2023-04-02T06:47:27.073Z,94431.00
2023-04-02T06:48:27.068Z,94431.00
2023-04-02T06:49:27.140Z,94433.00
2023-04-02T06:50:27.123Z,94433.00
2023-04-02T06:51:27.188Z,94433.00
2023-04-02T06:52:27.264Z,94431.00
2023-04-02T06:53:27.259Z,94431.00
2023-04-02T06:54:27.310Z,94433.00
2023-04-02T06:55:27.453Z,94433.00
2023-04-02T06:56:27.446Z,94431.00
2023-04-02T06:57:27.522Z,94431.00
2023-04-02T06:58:27.513Z,94433.00
2023-04-02T06:59:27.508Z,94433.00
2023-04-02T07:00:27.553Z,94431.00
2023-04-02T07:01:27.602Z,94431.00
2023-04-02T07:02:27.622Z,94431.00
2023-04-02T07:03:27.643Z,94429.00
2023-04-02T07:04:27.742Z,94428.00
2023-04-02T07:05:27.680Z,94426.00
2023-04-02T07:06:27.641Z,94429.00
2023-04-02T07:07:27.621Z,94429.00
2023-04-02T07:08:27.607Z,94429.00
2023-04-02T07:09:27.635Z,94429.00
2023-04-02T07:10:27.577Z,94431.00
2023-04-02T07:11:27.588Z,94433.00
2023-04-02T07:12:27.653Z,94433.00
2023-04-02T07:13:27.622Z,94431.00
2023-04-02T07:14:27.686Z,94433.00
2023-04-02T07:15:27.721Z,94429.00
2023-04-02T07:16:27.905Z,94429.00
2023-04-02T07:17:27.747Z,94433.00
2023-04-02T07:18:27.794Z,94431.00
2023-04-02T07:19:27.829Z,94428.00
2023-04-02T07:20:27.912Z,94426.00
2023-04-02T07:21:27.963Z,94426.00
2023-04-02T07:22:28.019Z,94426.00
2023-04-02T07:23:28.017Z,94424.00
2023-04-02T07:24:28.056Z,94424.00
2023-04-02T07:25:28.127Z,94422.00
2023-04-02T07:26:28.188Z,94424.00
2023-04-02T07:27:28.223Z,94422.00
2023-04-02T07:28:28.243Z,94426.00
2023-04-02T07:29:28.295Z,94426.00
2023-04-02T07:30:28.328Z,94424.00
2023-04-02T07:31:28.556Z,94426.00
2023-04-02T07:32:28.639Z,94426.00
2023-04-02T07:33:28.432Z,94429.00
2023-04-02T07:34:28.677Z,94429.00
2023-04-02T07:35:28.581Z,94428.00
2023-04-02T07:36:28.581Z,94428.00
2023-04-02T07:37:28.648Z,94428.00
2023-04-02T07:38:28.714Z,94426.00
2023-04-02T07:39:28.622Z,94428.00
2023-04-02T07:40:28.628Z,94428.00
2023-04-02T07:41:28.661Z,94428.00
2023-04-02T07:42:28.702Z,94429.00
2023-04-02T07:43:28.736Z,94431.00
2023-04-02T07:44:28.689Z,94435.00
2023-04-02T07:45:28.667Z,94435.00
2023-04-02T07:46:28.785Z,94433.00
2023-04-02T07:47:28.767Z,94435.00
2023-04-02T07:48:28.748Z,94439.00
2023-04-02T07:49:28.805Z,94443.00
2023-04-02T07:50:28.782Z,94441.00
2023-04-02T07:51:28.752Z,94443.00
2023-04-02T07:52:28.822Z,94445.00
2023-04-02T07:53:28.841Z,94445.00
2023-04-02T07:54:28.782Z,94445.00
2023-04-02T07:55:28.823Z,94447.00
2023-04-02T07:56:28.804Z,94447.00
2023-04-02T07:57:28.860Z,94447.00
2023-04-02T07:58:28.806Z,94447.00
2023-04-02T07:59:28.874Z,94447.00
2023-04-02T08:00:28.999Z,94447.00
2023-04-02T08:01:28.813Z,94445.00
2023-04-02T08:02:28.861Z,94445.00
2023-04-02T08:03:29.112Z,94445.00
2023-04-02T08:04:28.844Z,94447.00
2023-04-02T08:05:28.881Z,94447.00
2023-04-02T08:06:28.926Z,94447.00
2023-04-02T08:07:28.891Z,94447.00
2023-04-02T08:08:28.996Z,94445.00
2023-04-02T08:09:29.002Z,94449.00
2023-04-02T08:10:29.028Z,94445.00
2023-04-02T08:11:31.551Z,94447.00
2023-04-02T08:12:29.132Z,94447.00
2023-04-02T08:13:29.115Z,94445.00
2023-04-02T08:14:29.073Z,94445.00
2023-04-02T08:15:29.070Z,94445.00
2023-04-02T08:16:29.093Z,94451.00
2023-04-02T08:17:29.055Z,94451.00
2023-04-02T08:18:29.080Z,94451.00
2023-04-02T08:19:29.017Z,94451.00
2023-04-02T08:20:29.024Z,94453.00
2023-04-02T08:21:29.042Z,94453.00
2023-04-02T08:22:29.034Z,94451.00
2023-04-02T08:23:29.065Z,94453.00
2023-04-02T08:24:29.017Z,94453.00
2023-04-02T08:25:29.008Z,94453.00
2023-04-02T08:26:29.004Z,94451.00
2023-04-02T08:27:28.967Z,94449.00
2023-04-02T08:28:28.998Z,94451.00
2023-04-02T08:29:28.985Z,94453.00
2023-04-02T08:30:29.031Z,94453.00
2023-04-02T08:31:29.036Z,94455.00
2023-04-02T08:32:29.067Z,94455.00
2023-04-02T08:33:28.961Z,94453.00
2023-04-02T08:34:28.990Z,94451.00
2023-04-02T08:35:29.003Z,94453.00
2023-04-02T08:36:29.019Z,94455.00
2023-04-02T08:37:28.904Z,94453.00
2023-04-02T08:38:29.032Z,94455.00
2023-04-02T08:39:28.941Z,94451.00
2023-04-02T08:40:28.872Z,94451.00
2023-04-02T08:41:28.910Z,94449.00
2023-04-02T08:42:28.940Z,94451.00
2023-04-02T08:43:28.953Z,94449.00
2023-04-02T08:44:28.866Z,94449.00
2023-04-02T08:45:28.905Z,94449.00
2023-04-02T08:46:28.848Z,94445.00
2023-04-02T08:47:28.911Z,94445.00
2023-04-02T08:48:28.845Z,94443.00
2023-04-02T08:49:28.808Z,94441.00
2023-04-02T08:50:28.826Z,94443.00
2023-04-02T08:51:28.787Z,94441.00
2023-04-02T08:52:28.946Z,94441.00
2023-04-02T08:53:28.807Z,94441.00
2023-04-02T08:54:29.042Z,94439.00
2023-04-02T08:55:28.810Z,94441.00
2023-04-02T08:56:28.806Z,94439.00
2023-04-02T08:57:28.790Z,94439.00
2023-04-02T08:58:28.766Z,94437.00
2023-04-02T08:59:28.774Z,94433.00
2023-04-02T09:00:28.785Z,94433.00
2023-04-02T09:01:28.803Z,94431.00
2023-04-02T09:02:28.745Z,94433.00
2023-04-02T09:03:28.836Z,94388.00
2023-04-02T09:04:28.826Z,94384.00
2023-04-02T09:05:28.862Z,94390.00
2023-04-02T09:06:28.897Z,94390.00
2023-04-02T09:07:28.918Z,94388.00
2023-04-02T09:08:28.959Z,94388.00
2023-04-02T09:09:29.016Z,94398.00
2023-04-02T09:10:29.024Z,94390.00
2023-04-02T09:11:29.154Z,94388.00
2023-04-02T09:12:29.163Z,94388.00
2023-04-02T09:13:29.166Z,94388.00
2023-04-02T09:14:29.219Z,94388.00
2023-04-02T09:15:29.186Z,94390.00
2023-04-02T09:16:29.382Z,94388.00
2023-04-02T09:17:32.799Z,94390.00
2023-04-02T09:18:30.337Z,94388.00
2023-04-02T09:19:29.251Z,94390.00
2023-04-02T09:20:29.319Z,94390.00
2023-04-02T09:21:29.297Z,94386.00
2023-04-02T09:22:29.263Z,94390.00
2023-04-02T09:23:29.248Z,94386.00
2023-04-02T09:24:29.246Z,94386.00
2023-04-02T09:25:29.240Z,94388.00
2023-04-02T09:26:29.250Z,94386.00
2023-04-02T09:27:29.335Z,94386.00
2023-04-02T09:28:29.238Z,94384.00
2023-04-02T09:29:29.252Z,94388.00
2023-04-02T09:30:29.256Z,94388.00
2023-04-02T09:31:29.324Z,94390.00
2023-04-02T09:32:29.362Z,94390.00
2023-04-02T09:33:29.396Z,94390.00
2023-04-02T09:34:29.315Z,94388.00
2023-04-02T09:35:29.344Z,94390.00
2023-04-02T09:36:29.472Z,94388.00
2023-04-02T09:37:29.416Z,94390.00
2023-04-02T09:38:29.451Z,94386.00
2023-04-02T09:39:29.494Z,94386.00
2023-04-02T09:40:29.518Z,94384.00
2023-04-02T09:41:29.600Z,94398.00
2023-04-02T09:42:29.583Z,94390.00
2023-04-02T09:43:29.592Z,94384.00
2023-04-02T09:44:29.706Z,94386.00
2023-04-02T09:45:29.682Z,94390.00
2023-04-02T09:46:29.802Z,94390.00
2023-04-02T09:47:29.807Z,94388.00
2023-04-02T09:48:29.821Z,94390.00
2023-04-02T09:49:29.923Z,94386.00
2023-04-02T09:50:29.919Z,94388.00
2023-04-02T09:51:29.964Z,94386.00
2023-04-02T09:52:29.988Z,94388.00
2023-04-02T09:53:29.995Z,94386.00
2023-04-02T09:54:30.063Z,94388.00
2023-04-02T09:55:30.071Z,94386.00
2023-04-02T09:56:30.152Z,94386.00
2023-04-02T09:57:30.193Z,94388.00
2023-04-02T09:58:30.191Z,94386.00
2023-04-02T09:59:30.233Z,94388.00
2023-04-02T10:00:32.558Z,94390.00
2023-04-02T10:01:30.475Z,94398.00
2023-04-02T10:02:30.549Z,94398.00
2023-04-02T10:03:30.478Z,94398.00
2023-04-02T10:04:30.620Z,94398.00
2023-04-02T10:05:40.554Z,94400.00
2023-04-02T10:06:31.558Z,94402.00
2023-04-02T10:07:30.567Z,94400.00
2023-04-02T10:08:30.577Z,94404.00
2023-04-02T10:09:30.519Z,94402.00
2023-04-02T10:10:30.512Z,94406.00
2023-04-02T10:11:36.439Z,94404.00
2023-04-02T10:12:31.498Z,94404.00
2023-04-02T10:13:30.509Z,94400.00
2023-04-02T10:14:30.512Z,94400.00
2023-04-02T10:15:30.519Z,94400.00
2023-04-02T10:16:30.552Z,94400.00
2023-04-02T10:17:30.539Z,94390.00
2023-04-02T10:18:30.490Z,94388.00
2023-04-02T10:19:30.495Z,94388.00
2023-04-02T10:20:30.655Z,94388.00
2023-04-02T10:21:30.466Z,94388.00
2023-04-02T10:22:30.442Z,94388.00
2023-04-02T10:23:30.475Z,94390.00
2023-04-02T10:24:30.418Z,94388.00
2023-04-02T10:25:30.433Z,94390.00
2023-04-02T10:26:30.388Z,94390.00
2023-04-02T10:27:30.392Z,94398.00
2023-04-02T10:28:30.393Z,94398.00
2023-04-02T10:29:30.411Z,94398.00
2023-04-02T10:30:30.466Z,94390.00
2023-04-02T10:31:30.407Z,94390.00
2023-04-02T10:32:30.422Z,94398.00
2023-04-02T10:33:30.412Z,94398.00
2023-04-02T10:34:30.393Z,94398.00
2023-04-02T10:35:30.385Z,94400.00
2023-04-02T10:36:30.371Z,94400.00
2023-04-02T10:37:30.338Z,94398.00
2023-04-02T10:38:30.321Z,94402.00
2023-04-02T10:39:30.344Z,94402.00
2023-04-02T10:40:30.290Z,94400.00
2023-04-02T10:41:30.343Z,94402.00
2023-04-02T10:42:30.355Z,94400.00
2023-04-02T10:43:30.290Z,94400.00
2023-04-02T10:44:30.312Z,94400.00
2023-04-02T10:45:30.312Z,94402.00
2023-04-02T10:46:30.292Z,94402.00
2023-04-02T10:47:30.287Z,94400.00
2023-04-02T10:48:30.290Z,94404.00
2023-04-02T10:49:30.326Z,94404.00
2023-04-02T10:50:30.268Z,94406.00
2023-04-02T10:51:30.271Z,94406.00
2023-04-02T10:52:30.273Z,94404.00
2023-04-02T10:53:30.266Z,94406.00
2023-04-02T10:54:30.224Z,94406.00
2023-04-02T10:55:30.243Z,94410.00
2023-04-02T10:56:37.707Z,94406.00
2023-04-02T10:57:31.240Z,94412.00
2023-04-02T10:58:30.204Z,94410.00
2023-04-02T10:59:30.189Z,94408.00
2023-04-02T11:00:30.223Z,94408.00
2023-04-02T11:01:30.201Z,94408.00
2023-04-02T11:02:30.238Z,94408.00
2023-04-02T11:03:30.231Z,94412.00
2023-04-02T11:04:30.187Z,94412.00
2023-04-02T11:05:30.154Z,94406.00
2023-04-02T11:06:30.149Z,94408.00
2023-04-02T11:07:30.156Z,94410.00
2023-04-02T11:08:30.166Z,94408.00
2023-04-02T11:09:30.220Z,94410.00
2023-04-02T11:10:30.297Z,94410.00
2023-04-02T11:11:30.395Z,94412.00
2023-04-02T11:12:30.444Z,94412.00
2023-04-02T11:13:30.506Z,94410.00
2023-04-02T11:14:30.563Z,94410.00
2023-04-02T11:15:30.635Z,94410.00
2023-04-02T11:16:30.842Z,94414.00
2023-04-02T11:17:30.758Z,94412.00
2023-04-02T11:18:30.789Z,94414.00
2023-04-02T11:19:30.870Z,94416.00
2023-04-02T11:20:30.912Z,94422.00
2023-04-02T11:21:30.995Z,94420.00
2023-04-02T11:22:31.030Z,94422.00
2023-04-02T11:23:31.115Z,94422.00
2023-04-02T11:24:31.176Z,94424.00
2023-04-02T11:25:31.216Z,94422.00
2023-04-02T11:26:31.296Z,94424.00
2023-04-02T11:27:31.328Z,94426.00
2023-04-02T11:28:31.405Z,94428.00
2023-04-02T11:29:31.413Z,94428.00
2023-04-02T11:30:31.450Z,94428.00
2023-04-02T11:31:31.556Z,94429.00
2023-04-02T11:32:31.542Z,94429.00
2023-04-02T11:34:31.548Z,94429.00
2023-04-02T11:35:31.545Z,94431.00
2023-04-02T11:36:31.528Z,94435.00
2023-04-02T11:37:31.505Z,94437.00
2023-04-02T11:38:31.497Z,94433.00
2023-04-02T11:39:31.505Z,94435.00
2023-04-02T11:40:31.523Z,94437.00
2023-04-02T11:41:31.465Z,94471.00
2023-04-02T11:42:31.481Z,94473.00
2023-04-02T11:43:31.432Z,94473.00
2023-04-02T11:44:31.509Z,94473.00
2023-04-02T11:45:33.758Z,94475.00
2023-04-02T11:46:32.474Z,94477.00